Time;durP1;ratioP1;P1;durP2;ratioP2;P2;SDS_P1;SDS_P2;PMS_P1;PMS_P2;Temp;Humidity;BMP_temperature;BMP_pressure;BME280_temperature;BME280_humidity;BME280_pressure;Samples;Min_cycle;Max_cycle;Signal;HPM_P1;HPM_P2
2021/12/25 00:00:31;;;;;;;14.68;5.50;;;14.10;99.90;;;;;;5036243;28;20029;-76
2021/12/25 00:02:59;;;;;;;17.70;5.55;;;14.10;99.90;;;;;;5018684;28;20401;-80
2021/12/25 00:05:25;;;;;;;22.25;5.63;;;14.10;99.90;;;;;;5036034;28;20060;-78
2021/12/25 00:07:51;;;;;;;12.02;5.53;;;14.10;99.90;;;;;;5018660;28;20068;-80
2021/12/25 00:10:18;;;;;;;17.92;5.47;;;14.10;99.90;;;;;;5035868;28;20029;-81
2021/12/25 00:12:44;;;;;;;16.02;5.30;;;14.10;99.90;;;;;;5035876;28;20080;-65
2021/12/25 00:15:09;;;;;;;16.77;6.28;;;14.10;99.90;;;;;;5017809;28;20029;-65
2021/12/25 00:17:35;;;;;;;20.08;5.55;;;14.10;99.90;;;;;;5035772;28;20108;-65
2021/12/25 00:20:01;;;;;;;17.85;5.70;;;14.10;99.90;;;;;;5035693;28;20041;-65
2021/12/25 00:22:27;;;;;;;17.88;5.53;;;14.10;99.90;;;;;;5035569;28;20017;-64
2021/12/25 00:24:53;;;;;;;16.63;6.28;;;14.20;99.90;;;;;;5035911;28;20044;-65
2021/12/25 00:35:04;;;;;;;17.58;5.78;;;14.20;99.90;;;;;;5035686;28;20391;-65
2021/12/25 00:37:30;;;;;;;13.45;5.13;;;14.20;99.90;;;;;;5035483;28;20022;-65
2021/12/25 00:39:56;;;;;;;17.92;5.90;;;14.20;99.90;;;;;;5035254;28;20021;-64
2021/12/25 00:42:22;;;;;;;17.50;6.47;;;14.20;99.90;;;;;;5035252;28;20026;-64
2021/12/25 00:44:48;;;;;;;18.92;6.22;;;14.20;99.90;;;;;;5035008;28;20053;-64
2021/12/25 00:47:14;;;;;;;17.77;5.88;;;14.20;99.90;;;;;;5034853;28;20025;-64
2021/12/25 00:49:40;;;;;;;15.57;5.85;;;14.20;99.90;;;;;;5034680;28;20483;-67
2021/12/25 00:52:06;;;;;;;19.45;6.22;;;14.20;99.90;;;;;;5035200;28;20486;-64
2021/12/25 00:54:32;;;;;;;17.52;5.88;;;14.30;99.90;;;;;;5034797;28;20049;-65
2021/12/25 00:56:58;;;;;;;15.23;5.70;;;14.30;99.90;;;;;;5034825;28;20048;-65
2021/12/25 00:59:25;;;;;;;20.92;7.18;;;14.30;99.90;;;;;;5035032;28;20080;-64
2021/12/25 01:01:51;;;;;;;19.58;6.68;;;14.30;99.90;;;;;;5035215;28;20018;-65
2021/12/25 01:04:17;;;;;;;15.93;5.88;;;14.30;99.90;;;;;;5017015;28;20067;-65
2021/12/25 01:06:43;;;;;;;20.02;6.50;;;14.40;99.90;;;;;;5035003;28;20033;-65
2021/12/25 01:09:09;;;;;;;22.75;6.53;;;14.40;99.90;;;;;;5034745;28;20415;-64
2021/12/25 01:11:36;;;;;;;18.98;5.80;;;14.30;99.90;;;;;;5017156;28;20091;-65
2021/12/25 01:14:14;;;;;;;21.92;6.20;;;14.40;99.90;;;;;;5034720;28;20038;-65
2021/12/25 01:22:10;;;;;;;15.30;6.10;;;14.40;99.90;;;;;;5034829;28;20037;-65
2021/12/25 01:25:32;;;;;;;19.85;6.03;;;14.30;99.90;;;;;;5034256;28;20497;-64
2021/12/25 01:30:32;;;;;;;21.23;6.07;;;14.40;99.90;;;;;;5022332;28;20104;-65
2021/12/25 01:33:33;;;;;;;20.25;6.25;;;14.40;99.90;;;;;;5018067;28;20025;-65
2021/12/25 01:36:26;;;;;;;13.50;5.22;;;14.30;99.90;;;;;;5033884;28;20065;-65
2021/12/25 01:39:06;;;;;;;16.67;6.13;;;14.30;99.90;;;;;;5033994;28;20538;-65
2021/12/25 01:49:38;;;;;;;19.67;6.05;;;14.30;99.90;;;;;;5033906;28;20410;-65
2021/12/25 01:52:05;;;;;;;16.65;6.43;;;14.20;99.90;;;;;;5033856;28;20104;-64
2021/12/25 01:54:32;;;;;;;18.98;6.50;;;14.20;99.90;;;;;;5034238;28;20039;-65
2021/12/25 01:56:57;;;;;;;15.20;6.25;;;14.20;99.90;;;;;;5034035;28;20454;-64
2021/12/25 01:59:23;;;;;;;16.88;5.72;;;14.20;99.90;;;;;;5033794;28;20049;-64
2021/12/25 02:01:49;;;;;;;19.85;6.20;;;14.10;99.90;;;;;;5033835;28;20097;-65
2021/12/25 02:04:14;;;;;;;16.33;6.30;;;14.10;99.90;;;;;;5033703;28;20116;-66
2021/12/25 02:06:41;;;;;;;17.20;6.22;;;14.10;99.90;;;;;;5033719;28;20036;-65
2021/12/25 02:09:07;;;;;;;18.05;5.60;;;14.20;99.90;;;;;;5033430;28;20026;-65
2021/12/25 02:11:33;;;;;;;24.95;5.68;;;14.20;99.90;;;;;;5015899;28;20356;-66
2021/12/25 02:13:59;;;;;;;14.07;5.88;;;14.20;99.90;;;;;;5033678;28;20109;-64
2021/12/25 02:16:37;;;;;;;16.60;5.93;;;14.20;99.90;;;;;;5033487;28;20032;-65
2021/12/25 02:19:21;;;;;;;19.52;5.45;;;14.30;99.90;;;;;;5033313;28;20132;-65
2021/12/25 02:21:50;;;;;;;20.10;5.57;;;14.30;99.90;;;;;;5033457;28;20101;-65
2021/12/25 02:24:16;;;;;;;16.65;5.40;;;14.30;99.90;;;;;;5033396;28;20514;-66
2021/12/25 02:26:44;;;;;;;14.38;5.72;;;14.30;99.90;;;;;;5033428;28;20052;-65
2021/12/25 02:29:10;;;;;;;13.75;5.82;;;14.40;99.90;;;;;;5033121;28;20025;-64
2021/12/25 02:31:36;;;;;;;14.50;6.25;;;14.40;99.90;;;;;;5033485;28;20375;-65
2021/12/25 02:34:03;;;;;;;21.65;5.78;;;14.40;99.90;;;;;;5033100;28;20033;-64
2021/12/25 02:36:28;;;;;;;17.40;6.15;;;14.40;99.90;;;;;;5033463;28;20057;-65
2021/12/25 02:38:54;;;;;;;24.75;6.05;;;14.40;99.90;;;;;;5033269;28;20482;-65
2021/12/25 02:41:20;;;;;;;18.45;6.53;;;14.40;99.90;;;;;;5033379;28;20021;-65
2021/12/25 02:43:46;;;;;;;18.27;6.15;;;14.40;99.90;;;;;;5033216;28;20380;-64
2021/12/25 02:46:14;;;;;;;15.85;6.00;;;14.40;99.90;;;;;;5033149;28;20051;-66
2021/12/25 02:48:42;;;;;;;15.55;6.45;;;14.40;99.90;;;;;;5015255;28;20029;-64
2021/12/25 02:51:09;;;;;;;16.58;6.55;;;14.40;99.90;;;;;;5015352;28;20387;-65
2021/12/25 02:53:35;;;;;;;12.10;5.78;;;14.40;99.90;;;;;;5033031;28;20107;-66
2021/12/25 02:56:01;;;;;;;18.20;6.13;;;14.40;99.90;;;;;;5015391;28;20527;-66
2021/12/25 02:58:27;;;;;;;17.25;6.18;;;14.40;99.90;;;;;;5032798;28;20108;-65
2021/12/25 03:01:15;;;;;;;17.42;6.10;;;14.50;99.90;;;;;;5032864;28;20026;-65
2021/12/25 03:03:42;;;;;;;17.92;5.63;;;14.50;99.90;;;;;;5033141;28;20389;-64
2021/12/25 03:06:09;;;;;;;19.60;5.97;;;14.50;99.90;;;;;;5033333;28;20486;-64
2021/12/25 03:08:35;;;;;;;20.75;6.40;;;14.50;99.90;;;;;;5032658;28;20100;-64
2021/12/25 03:11:03;;;;;;;17.70;6.35;;;14.50;99.90;;;;;;5033175;28;20553;-65
2021/12/25 03:16:21;;;;;;;20.17;6.55;;;14.40;99.90;;;;;;5024306;28;20037;-68
2021/12/25 03:18:50;;;;;;;14.70;5.63;;;14.40;99.90;;;;;;5033884;28;20049;-65
2021/12/25 03:21:17;;;;;;;18.02;5.70;;;14.40;99.90;;;;;;5036813;28;20036;-65
2021/12/25 03:23:43;;;;;;;17.95;6.45;;;14.40;99.90;;;;;;5036703;28;20079;-67
2021/12/25 03:26:10;;;;;;;16.40;5.80;;;14.40;99.90;;;;;;5036775;28;20026;-65
2021/12/25 03:28:39;;;;;;;20.42;6.05;;;14.40;99.90;;;;;;5036536;28;20099;-65
2021/12/25 03:31:14;;;;;;;15.90;5.78;;;14.40;99.90;;;;;;5019007;28;20104;-66
2021/12/25 03:33:40;;;;;;;13.57;5.25;;;14.40;99.90;;;;;;5036960;28;20022;-65
2021/12/25 03:36:05;;;;;;;14.95;5.15;;;14.40;99.90;;;;;;5037959;28;20037;-69
2021/12/25 03:38:31;;;;;;;14.88;6.05;;;14.40;99.90;;;;;;5038295;28;20045;-64
2021/12/25 03:40:59;;;;;;;17.17;5.40;;;14.40;99.90;;;;;;5035069;28;20034;-64
2021/12/25 03:43:24;;;;;;;18.77;6.15;;;14.40;99.90;;;;;;5036351;28;20055;-64
2021/12/25 03:45:50;;;;;;;14.05;5.03;;;14.40;99.90;;;;;;5036388;28;20021;-64
2021/12/25 03:48:41;;;;;;;18.50;5.68;;;14.40;99.90;;;;;;5036145;28;20490;-65
2021/12/25 03:59:10;;;;;;;17.48;5.13;;;14.40;99.90;;;;;;5036223;28;20044;-65
2021/12/25 04:06:44;;;;;;;22.08;5.90;;;14.50;99.90;;;;;;5036291;28;20040;-66
2021/12/25 04:09:21;;;;;;;15.13;6.38;;;14.50;99.90;;;;;;5035902;28;20414;-64
2021/12/25 04:11:47;;;;;;;18.35;6.25;;;14.50;99.90;;;;;;5035810;28;20448;-65
2021/12/25 04:14:13;;;;;;;19.17;5.88;;;14.50;99.90;;;;;;5035661;28;20475;-65
2021/12/25 04:16:38;;;;;;;18.20;5.65;;;14.50;99.90;;;;;;5035744;28;20022;-65
2021/12/25 04:19:04;;;;;;;16.48;5.80;;;14.50;99.90;;;;;;5035726;28;20116;-65
2021/12/25 04:21:30;;;;;;;15.52;5.50;;;14.50;99.90;;;;;;5035791;28;20045;-64
2021/12/25 04:23:56;;;;;;;20.00;5.55;;;14.50;99.90;;;;;;5035951;28;20434;-80
2021/12/25 04:26:24;;;;;;;14.57;6.07;;;14.50;99.90;;;;;;5036104;28;20021;-80
2021/12/25 04:29:05;;;;;;;16.58;5.57;;;14.50;99.90;;;;;;5035722;28;20025;-67
2021/12/25 04:31:49;;;;;;;14.65;5.35;;;14.50;99.90;;;;;;5034966;28;20345;-64
2021/12/25 04:48:37;;;;;;;9.63;4.05;;;14.50;99.90;;;;;;5035505;28;19950;-65
2021/12/25 05:04:43;;;;;;;14.23;5.30;;;14.60;99.90;;;;;;5034924;28;20381;-64
2021/12/25 05:07:05;;;;;;;17.90;6.05;;;14.60;99.90;;;;;;5034449;28;20034;-65
2021/12/25 05:09:31;;;;;;;20.40;5.90;;;14.60;99.90;;;;;;5035041;28;20028;-65
2021/12/25 05:11:56;;;;;;;19.35;6.05;;;14.60;99.90;;;;;;5034850;28;20104;-65
2021/12/25 05:14:22;;;;;;;20.40;6.30;;;14.60;99.90;;;;;;5016876;28;20091;-65
2021/12/25 05:16:48;;;;;;;22.40;6.45;;;14.60;99.90;;;;;;5034545;28;20060;-65
2021/12/25 05:19:14;;;;;;;19.90;6.63;;;14.60;99.90;;;;;;5034731;28;20025;-65
2021/12/25 05:21:40;;;;;;;24.27;7.00;;;14.60;99.90;;;;;;5034986;28;20063;-78
2021/12/25 05:24:06;;;;;;;17.73;5.72;;;14.60;99.90;;;;;;5034498;28;20493;-65
2021/12/25 05:26:33;;;;;;;20.85;5.90;;;14.60;99.90;;;;;;5034390;28;20103;-64
2021/12/25 05:29:01;;;;;;;21.50;5.95;;;14.70;99.90;;;;;;5034611;28;20072;-70
2021/12/25 05:31:30;;;;;;;17.52;5.90;;;14.70;99.90;;;;;;5034417;28;20030;-64
2021/12/25 05:33:56;;;;;;;19.45;6.18;;;14.70;99.90;;;;;;5034597;28;20040;-64
2021/12/25 05:36:24;;;;;;;19.48;6.07;;;14.70;99.90;;;;;;5034511;28;20033;-64
2021/12/25 05:38:50;;;;;;;23.10;6.80;;;14.70;99.90;;;;;;5034019;28;20075;-64
2021/12/25 05:41:16;;;;;;;17.58;6.55;;;14.70;99.90;;;;;;5034044;28;20033;-65
2021/12/25 05:43:42;;;;;;;19.13;6.25;;;14.80;99.90;;;;;;5036753;28;20026;-79
2021/12/25 05:46:08;;;;;;;25.48;8.23;;;14.70;99.90;;;;;;5036633;28;20144;-79
2021/12/25 05:48:35;;;;;;;17.85;6.13;;;14.70;99.90;;;;;;5034183;28;20510;-64
2021/12/25 05:51:03;;;;;;;22.77;7.53;;;14.80;99.90;;;;;;5034010;28;20065;-65
2021/12/25 05:53:29;;;;;;;22.00;6.72;;;14.80;99.90;;;;;;5033885;28;20108;-65
2021/12/25 05:55:54;;;;;;;18.30;6.57;;;14.70;99.90;;;;;;5016576;28;20121;-65
2021/12/25 05:58:20;;;;;;;23.52;7.10;;;14.70;99.90;;;;;;5034128;28;20025;-66
2021/12/25 06:00:46;;;;;;;18.52;7.10;;;14.70;99.90;;;;;;5033917;28;20029;-65
2021/12/25 06:03:12;;;;;;;17.15;6.68;;;14.70;99.90;;;;;;5033922;28;20033;-65
2021/12/25 06:05:39;;;;;;;23.88;6.82;;;14.70;99.90;;;;;;5033720;28;20025;-66
2021/12/25 06:08:05;;;;;;;23.42;7.35;;;14.70;99.90;;;;;;5033932;28;20036;-65
2021/12/25 06:10:32;;;;;;;22.27;7.30;;;14.70;99.90;;;;;;5033847;28;20460;-65
2021/12/25 06:12:59;;;;;;;23.67;7.78;;;14.70;99.90;;;;;;5033645;28;20036;-65
2021/12/25 06:15:26;;;;;;;22.50;6.82;;;14.70;99.90;;;;;;5033685;28;20033;-65
2021/12/25 06:17:52;;;;;;;21.75;7.05;;;14.70;99.90;;;;;;5033445;28;20344;-65
2021/12/25 06:20:18;;;;;;;21.33;7.57;;;14.70;99.90;;;;;;5033299;28;20100;-65
2021/12/25 06:22:44;;;;;;;30.67;9.32;;;14.70;99.90;;;;;;5033759;28;20127;-65
2021/12/25 06:25:10;;;;;;;19.65;7.15;;;14.70;99.90;;;;;;5033684;28;20162;-65
2021/12/25 06:27:37;;;;;;;19.00;7.43;;;14.70;99.90;;;;;;5033610;28;20021;-64
2021/12/25 06:30:04;;;;;;;32.70;8.27;;;14.70;99.90;;;;;;5033389;28;20040;-65
2021/12/25 06:32:30;;;;;;;22.35;7.10;;;14.80;99.90;;;;;;5033202;28;20383;-65
2021/12/25 06:34:55;;;;;;;22.60;7.75;;;14.80;99.90;;;;;;5015868;28;20044;-66
2021/12/25 06:37:23;;;;;;;20.35;7.38;;;14.70;99.90;;;;;;5033504;28;20021;-65
2021/12/25 06:39:49;;;;;;;20.42;7.28;;;14.70;99.90;;;;;;5033245;28;20026;-66
2021/12/25 06:42:15;;;;;;;18.70;7.05;;;14.80;99.90;;;;;;5033213;28;20028;-65
2021/12/25 06:44:41;;;;;;;20.67;7.70;;;14.80;99.90;;;;;;5033336;28;20025;-65
2021/12/25 06:47:07;;;;;;;18.90;7.22;;;14.80;99.90;;;;;;5033039;28;20060;-65
2021/12/25 06:49:34;;;;;;;22.10;7.18;;;14.70;99.90;;;;;;5032641;28;20050;-65
2021/12/25 06:52:00;;;;;;;43.63;19.42;;;14.80;99.90;;;;;;5015317;28;20022;-66
2021/12/25 06:54:27;;;;;;;16.48;8.30;;;14.70;99.90;;;;;;5032797;28;20063;-64
2021/12/25 06:56:53;;;;;;;23.90;8.27;;;14.80;99.90;;;;;;5032983;28;20030;-65
2021/12/25 06:59:21;;;;;;;31.23;9.25;;;14.70;99.90;;;;;;5032888;28;20033;-65
2021/12/25 07:01:48;;;;;;;28.67;8.50;;;14.70;99.90;;;;;;5033021;28;20014;-65
2021/12/25 07:04:14;;;;;;;25.20;8.15;;;14.80;99.90;;;;;;5032894;28;20025;-66
2021/12/25 07:06:40;;;;;;;28.58;8.43;;;14.70;99.90;;;;;;5033058;28;20029;-65
2021/12/25 07:09:07;;;;;;;26.42;9.85;;;14.80;99.90;;;;;;5032861;28;20069;-65
2021/12/25 07:11:34;;;;;;;24.95;8.20;;;14.80;99.90;;;;;;5032920;28;20035;-65
2021/12/25 07:14:02;;;;;;;23.40;8.07;;;14.80;99.90;;;;;;5032997;28;20437;-65
2021/12/25 07:16:28;;;;;;;20.13;7.80;;;14.80;99.90;;;;;;5032980;28;20028;-68
2021/12/25 07:18:54;;;;;;;18.98;7.72;;;14.80;99.90;;;;;;5033505;28;20128;-66
2021/12/25 07:21:20;;;;;;;19.80;7.20;;;14.80;99.90;;;;;;5032828;28;20105;-65
2021/12/25 07:23:46;;;;;;;18.58;6.95;;;14.80;99.90;;;;;;5033806;28;20044;-67
2021/12/25 07:26:12;;;;;;;19.85;7.30;;;14.80;99.90;;;;;;5033308;28;20022;-66
2021/12/25 07:28:38;;;;;;;15.55;6.35;;;14.80;99.90;;;;;;5032922;28;20030;-65
2021/12/25 07:31:04;;;;;;;16.13;7.13;;;14.80;99.90;;;;;;5032718;28;20022;-65
2021/12/25 07:33:32;;;;;;;17.35;6.03;;;14.90;99.90;;;;;;5032675;28;20378;-64
2021/12/25 07:35:58;;;;;;;17.30;6.35;;;14.90;99.90;;;;;;5014990;28;20109;-65
2021/12/25 07:38:24;;;;;;;17.30;6.50;;;14.90;99.90;;;;;;5032647;28;20025;-66
2021/12/25 07:40:50;;;;;;;19.05;6.30;;;14.90;99.90;;;;;;5032808;28;20068;-64
2021/12/25 07:43:17;;;;;;;19.33;7.15;;;14.90;99.90;;;;;;5032765;28;20030;-66
2021/12/25 07:45:46;;;;;;;20.50;6.32;;;14.90;99.90;;;;;;5032648;28;20025;-66
2021/12/25 07:48:12;;;;;;;21.92;6.57;;;15.00;99.90;;;;;;5014610;28;20068;-66
2021/12/25 07:50:38;;;;;;;29.75;7.32;;;15.00;99.90;;;;;;5032228;28;20073;-65
2021/12/25 07:53:03;;;;;;;23.40;7.05;;;15.00;99.90;;;;;;5032350;28;20108;-65
2021/12/25 07:55:31;;;;;;;16.98;5.88;;;15.00;99.90;;;;;;5032493;28;20079;-65
2021/12/25 07:58:00;;;;;;;20.30;6.40;;;15.10;99.90;;;;;;5014660;28;20025;-64
2021/12/25 08:00:27;;;;;;;19.10;7.13;;;15.10;99.90;;;;;;5032405;28;20038;-64
2021/12/25 08:02:53;;;;;;;17.23;6.25;;;15.10;99.90;;;;;;5032274;28;20028;-66
2021/12/25 08:05:20;;;;;;;16.77;6.75;;;15.10;99.90;;;;;;5032568;28;20034;-65
2021/12/25 08:07:46;;;;;;;13.80;5.75;;;15.10;99.90;;;;;;5034268;28;20021;-65
2021/12/25 08:10:17;;;;;;;14.75;7.10;;;15.10;99.90;;;;;;5035826;28;20379;-71
2021/12/25 08:12:55;;;;;;;15.68;6.15;;;15.10;99.90;;;;;;5035826;28;20021;-65
2021/12/25 08:15:29;;;;;;;20.67;6.60;;;15.10;99.90;;;;;;5035503;28;20037;-64
2021/12/25 08:17:56;;;;;;;17.80;6.72;;;15.10;99.90;;;;;;5035549;28;20493;-65
2021/12/25 08:20:23;;;;;;;18.20;6.20;;;15.10;99.90;;;;;;5035504;28;20031;-66
2021/12/25 08:22:48;;;;;;;16.95;5.90;;;15.00;99.90;;;;;;5035463;28;20018;-68
2021/12/25 08:25:15;;;;;;;27.58;8.13;;;15.10;99.90;;;;;;5035562;28;20446;-64
2021/12/25 08:27:42;;;;;;;19.35;6.80;;;15.00;99.90;;;;;;5035566;28;20430;-64
2021/12/25 08:30:12;;;;;;;19.63;5.85;;;15.10;99.90;;;;;;5035254;28;20382;-68
2021/12/25 08:32:39;;;;;;;13.32;5.85;;;15.10;99.90;;;;;;5035303;28;20444;-65
2021/12/25 08:35:05;;;;;;;16.77;5.90;;;15.00;99.90;;;;;;5035366;28;20449;-66
2021/12/25 08:37:31;;;;;;;18.17;6.25;;;15.10;99.90;;;;;;5035306;28;20075;-66
2021/12/25 08:39:57;;;;;;;13.82;5.85;;;15.10;99.90;;;;;;5017575;28;20033;-65
2021/12/25 08:42:24;;;;;;;19.08;6.45;;;15.10;99.90;;;;;;5035242;28;20387;-65
2021/12/25 08:47:29;;;;;;;15.10;5.82;;;15.10;99.90;;;;;;5039321;28;20531;-71
2021/12/25 08:49:55;;;;;;;18.63;5.43;;;15.00;99.90;;;;;;5034962;28;20061;-71
2021/12/25 08:52:25;;;;;;;13.75;5.55;;;15.00;99.90;;;;;;5017561;28;20033;-78
2021/12/25 08:54:51;;;;;;;15.80;5.53;;;15.10;99.90;;;;;;5035083;28;20095;-80
2021/12/25 08:57:21;;;;;;;14.65;5.60;;;15.10;99.90;;;;;;5017630;28;20033;-79
2021/12/25 08:59:47;;;;;;;16.20;4.78;;;15.10;99.90;;;;;;5020372;28;20483;-77
2021/12/25 09:02:15;;;;;;;14.73;4.90;;;15.00;99.90;;;;;;5036058;28;20111;-80
2021/12/25 09:04:44;;;;;;;13.00;5.43;;;15.00;99.90;;;;;;5035098;28;20037;-80
2021/12/25 09:07:11;;;;;;;16.67;5.45;;;15.10;99.90;;;;;;5034823;28;20097;-79
2021/12/25 09:09:37;;;;;;;18.23;5.28;;;15.10;99.90;;;;;;5016928;28;20030;-82
2021/12/25 09:12:05;;;;;;;17.75;5.28;;;15.00;99.90;;;;;;5017400;28;20021;-75
2021/12/25 09:14:32;;;;;;;16.08;5.35;;;15.00;99.90;;;;;;5016491;28;20128;-78
2021/12/25 09:16:58;;;;;;;14.23;5.30;;;15.10;99.90;;;;;;5034286;28;20099;-76
2021/12/25 09:19:24;;;;;;;14.02;4.80;;;15.10;99.90;;;;;;5034628;28;20030;-76
2021/12/25 09:21:51;;;;;;;14.02;4.93;;;15.10;99.90;;;;;;5034717;28;20041;-81
2021/12/25 09:24:16;;;;;;;16.15;5.07;;;15.10;99.90;;;;;;5034708;28;20030;-80
2021/12/25 09:26:45;;;;;;;17.23;5.18;;;15.00;99.90;;;;;;5034396;28;20068;-80
2021/12/25 09:29:11;;;;;;;13.93;4.47;;;15.10;99.90;;;;;;5034467;28;20052;-75
2021/12/25 09:31:38;;;;;;;11.35;4.60;;;15.00;99.90;;;;;;5035535;28;20490;-80
2021/12/25 09:34:04;;;;;;;12.23;4.47;;;15.00;99.90;;;;;;5034946;28;20030;-77
2021/12/25 09:36:31;;;;;;;12.60;4.57;;;15.10;99.90;;;;;;5017306;28;20037;-78
2021/12/25 09:38:58;;;;;;;14.52;4.88;;;15.10;99.90;;;;;;5017121;28;20048;-75
2021/12/25 09:41:25;;;;;;;14.43;5.03;;;15.00;99.90;;;;;;5035160;28;20021;-75
2021/12/25 09:43:52;;;;;;;18.48;6.47;;;15.10;99.90;;;;;;5035914;28;20103;-68
2021/12/25 09:46:24;;;;;;;10.75;5.13;;;15.10;99.90;;;;;;5017710;28;20090;-79
2021/12/25 09:48:50;;;;;;;12.93;5.40;;;15.10;99.90;;;;;;5034977;28;20171;-74
2021/12/25 09:51:18;;;;;;;11.43;5.45;;;15.10;99.90;;;;;;5033823;28;20469;-78
2021/12/25 09:53:59;;;;;;;17.55;6.05;;;15.10;99.90;;;;;;5034080;28;20061;-78
2021/12/25 09:56:28;;;;;;;14.63;6.28;;;15.10;99.90;;;;;;5033871;28;20040;-70
2021/12/25 09:58:54;;;;;;;17.33;6.55;;;15.00;99.90;;;;;;5033830;28;20028;-77
2021/12/25 10:01:46;;;;;;;15.55;5.40;;;15.00;99.90;;;;;;5016150;28;20375;-78
2021/12/25 10:04:33;;;;;;;13.20;5.80;;;15.00;99.90;;;;;;5015051;28;20033;-67
2021/12/25 10:07:20;;;;;;;12.88;5.22;;;15.10;99.90;;;;;;5034129;28;20029;-65
2021/12/25 10:10:16;;;;;;;14.45;5.63;;;15.10;99.90;;;;;;5033874;28;20570;-75
2021/12/25 10:12:51;;;;;;;13.77;5.57;;;15.10;99.90;;;;;;5033694;28;20033;-76
2021/12/25 10:15:23;;;;;;;16.88;6.90;;;15.20;99.90;;;;;;5033486;28;20069;-77
2021/12/25 10:17:59;;;;;;;15.63;5.57;;;15.20;99.90;;;;;;5033365;28;20021;-77
2021/12/25 10:20:30;;;;;;;16.25;5.70;;;15.20;99.90;;;;;;5033623;28;20108;-80
2021/12/25 10:23:09;;;;;;;11.07;4.95;;;15.30;99.90;;;;;;5033231;28;20033;-74
2021/12/25 10:25:58;;;;;;;16.90;5.55;;;15.30;99.90;;;;;;5034432;28;20402;-79
2021/12/25 10:28:34;;;;;;;12.40;5.05;;;15.30;99.90;;;;;;5036088;28;20375;-78
2021/12/25 10:31:16;;;;;;;13.45;4.53;;;15.40;99.90;;;;;;5018368;28;20022;-75
2021/12/25 10:33:52;;;;;;;16.83;5.28;;;15.40;99.90;;;;;;5034096;28;20041;-80
2021/12/25 10:36:34;;;;;;;13.55;5.53;;;15.50;99.90;;;;;;5038374;28;20041;-80
2021/12/25 10:39:18;;;;;;;12.55;4.63;;;15.40;99.90;;;;;;5037698;28;20021;-74
2021/12/25 10:42:06;;;;;;;19.48;6.47;;;15.40;99.90;;;;;;5035791;28;20082;-70
2021/12/25 10:44:36;;;;;;;10.05;4.82;;;15.30;99.90;;;;;;5033269;28;20071;-78
2021/12/25 10:47:13;;;;;;;12.45;4.80;;;15.40;99.90;;;;;;5015789;28;20034;-75
2021/12/25 10:49:43;;;;;;;17.55;5.57;;;15.40;99.90;;;;;;5033635;28;20049;-81
2021/12/25 10:52:14;;;;;;;13.50;5.55;;;15.40;99.90;;;;;;5033484;28;20053;-75
2021/12/25 10:54:46;;;;;;;17.98;5.20;;;15.40;99.90;;;;;;5033241;28;20040;-66
2021/12/25 10:57:38;;;;;;;17.13;5.80;;;15.40;99.90;;;;;;5032298;28;20044;-79
2021/12/25 11:00:15;;;;;;;16.33;5.80;;;15.40;99.90;;;;;;5032861;28;20510;-76
2021/12/25 11:02:43;;;;;;;18.73;5.50;;;15.50;99.90;;;;;;5033197;28;20463;-78
2021/12/25 11:05:35;;;;;;;15.93;5.55;;;15.50;99.90;;;;;;5033215;28;20018;-69
2021/12/25 11:08:10;;;;;;;16.77;5.50;;;15.50;99.90;;;;;;5015271;28;20069;-74
2021/12/25 11:10:45;;;;;;;15.75;5.93;;;15.50;99.90;;;;;;5033321;28;20463;-72
2021/12/25 11:13:41;;;;;;;13.98;5.78;;;15.50;99.90;;;;;;5033305;28;20033;-72
2021/12/25 11:19:12;;;;;;;19.33;5.80;;;15.40;99.90;;;;;;5035003;28;20037;-75
2021/12/25 11:21:54;;;;;;;17.60;6.35;;;15.50;99.90;;;;;;5035683;28;20483;-70
2021/12/25 11:24:37;;;;;;;19.42;6.05;;;15.50;99.90;;;;;;5036865;28;20034;-75
2021/12/25 11:27:06;;;;;;;17.13;6.25;;;15.40;99.90;;;;;;5020445;28;20048;-72
2021/12/25 11:29:36;;;;;;;22.58;7.45;;;15.40;99.90;;;;;;5015205;28;20033;-71
2021/12/25 11:32:04;;;;;;;18.60;6.47;;;15.40;99.90;;;;;;5032649;28;20022;-73
2021/12/25 11:34:30;;;;;;;21.00;6.47;;;15.40;99.90;;;;;;5032708;28;20041;-67
2021/12/25 11:37:00;;;;;;;24.48;7.10;;;15.40;99.90;;;;;;5032752;28;20021;-68
2021/12/25 11:39:27;;;;;;;17.77;6.90;;;15.40;99.90;;;;;;5032936;28;20104;-66
2021/12/25 11:42:00;;;;;;;17.00;7.10;;;15.40;99.90;;;;;;5036378;28;20021;-66
2021/12/25 11:44:53;;;;;;;27.38;7.60;;;15.40;99.90;;;;;;5036346;28;20471;-66
2021/12/25 11:47:41;;;;;;;26.50;8.38;;;15.40;99.90;;;;;;5035227;28;20041;-68
2021/12/25 11:50:24;;;;;;;26.50;8.02;;;15.40;99.90;;;;;;5036584;28;20049;-68
2021/12/25 11:53:25;;;;;;;24.63;8.43;;;15.40;99.90;;;;;;5036478;28;20033;-66
2021/12/25 11:58:52;;;;;;;22.17;9.60;;;15.40;99.90;;;;;;5036230;28;20083;-65
2021/12/25 12:01:31;;;;;;;25.30;8.15;;;15.40;99.90;;;;;;5036058;28;20026;-66
2021/12/25 12:04:16;;;;;;;22.42;7.70;;;15.40;99.90;;;;;;5035967;28;20108;-65
2021/12/25 12:06:51;;;;;;;26.40;9.05;;;15.40;99.90;;;;;;5036011;28;20017;-80
2021/12/25 12:09:19;;;;;;;19.25;7.78;;;15.40;99.90;;;;;;5036315;28;20402;-79
2021/12/25 12:11:48;;;;;;;21.75;8.13;;;15.40;99.90;;;;;;5036468;28;20032;-80
2021/12/25 12:14:20;;;;;;;28.27;8.45;;;15.40;99.90;;;;;;5035819;28;20078;-77
2021/12/25 12:16:52;;;;;;;21.07;9.07;;;15.40;99.90;;;;;;5036174;28;20030;-77
2021/12/25 12:19:30;;;;;;;22.40;7.60;;;15.40;99.90;;;;;;5036398;28;20022;-80
2021/12/25 12:21:56;;;;;;;23.55;7.57;;;15.40;99.90;;;;;;5036368;28;20041;-79
2021/12/25 12:27:34;;;;;;;28.63;8.13;;;15.50;99.90;;;;;;5032912;28;20033;-77
2021/12/25 12:30:02;;;;;;;28.00;8.48;;;15.50;99.90;;;;;;5036080;28;20018;-82
2021/12/25 12:32:43;;;;;;;27.42;9.25;;;15.50;99.90;;;;;;5035510;28;20044;-80
2021/12/25 12:35:36;;;;;;;26.23;8.32;;;15.50;99.90;;;;;;5036009;28;20095;-73
2021/12/25 12:38:26;;;;;;;27.20;8.32;;;15.50;99.90;;;;;;5017955;28;20033;-81
2021/12/25 12:41:20;;;;;;;23.50;9.00;;;15.50;99.90;;;;;;5036019;28;20132;-77
2021/12/25 12:44:04;;;;;;;30.45;9.70;;;15.40;99.90;;;;;;5035578;28;20037;-78
2021/12/25 12:46:51;;;;;;;23.13;10.68;;;15.40;99.90;;;;;;5017795;28;20435;-79
2021/12/25 12:49:44;;;;;;;21.90;8.65;;;15.40;99.90;;;;;;5035123;28;20076;-76
2021/12/25 12:52:13;;;;;;;32.50;11.02;;;15.40;99.90;;;;;;5026768;28;20073;-78
2021/12/25 12:54:54;;;;;;;28.65;10.23;;;15.40;99.90;;;;;;5035450;28;20041;-78
2021/12/25 12:57:41;;;;;;;20.85;9.60;;;15.40;99.90;;;;;;5035436;28;20022;-72
2021/12/25 13:00:22;;;;;;;26.75;9.95;;;15.40;99.90;;;;;;5035429;28;20479;-75
2021/12/25 13:02:51;;;;;;;19.55;9.23;;;15.40;99.90;;;;;;5035267;28;20026;-74
2021/12/25 13:05:25;;;;;;;23.35;9.25;;;15.40;99.90;;;;;;5035207;28;20028;-67
2021/12/25 13:07:53;;;;;;;23.90;9.80;;;15.40;99.90;;;;;;5017267;28;20119;-69
2021/12/25 13:11:04;;;;;;;23.35;9.65;;;15.40;99.90;;;;;;5034823;28;20037;-69
2021/12/25 13:13:23;;;;;;;20.98;9.60;;;15.40;99.90;;;;;;5034189;28;20521;-78
2021/12/25 13:16:02;;;;;;;23.38;10.73;;;15.40;99.90;;;;;;5035061;28;20581;-80
2021/12/25 13:18:50;;;;;;;24.02;10.10;;;15.40;99.90;;;;;;5034952;28;20509;-79
2021/12/25 13:21:26;;;;;;;32.03;10.27;;;15.40;99.90;;;;;;5034964;28;20025;-81
2021/12/25 13:23:57;;;;;;;25.65;9.93;;;15.30;99.90;;;;;;5034825;28;20022;-81
2021/12/25 13:26:34;;;;;;;27.20;10.07;;;15.30;99.90;;;;;;5034797;28;20033;-81
2021/12/25 13:29:03;;;;;;;22.10;10.00;;;15.30;99.90;;;;;;5034561;28;20025;-77
2021/12/25 13:31:32;;;;;;;26.45;10.75;;;15.30;99.90;;;;;;5034978;28;20048;-82
2021/12/25 13:34:07;;;;;;;27.02;12.05;;;15.30;99.90;;;;;;5034900;28;20030;-82
2021/12/25 13:36:36;;;;;;;22.35;10.20;;;15.30;99.90;;;;;;5034778;28;20021;-81
2021/12/25 13:39:08;;;;;;;23.40;10.70;;;15.30;99.90;;;;;;5017016;28;20037;-75
2021/12/25 13:41:35;;;;;;;25.85;10.32;;;15.30;99.90;;;;;;5034757;28;20025;-79
2021/12/25 13:44:23;;;;;;;20.73;10.38;;;15.20;99.90;;;;;;5034468;28;20032;-81
2021/12/25 13:46:51;;;;;;;22.58;10.52;;;15.30;99.90;;;;;;5034595;28;20475;-74
2021/12/25 13:49:31;;;;;;;23.50;10.50;;;15.20;99.90;;;;;;5034348;28;20049;-81
2021/12/25 13:51:59;;;;;;;18.30;10.38;;;15.20;99.90;;;;;;5035236;28;20041;-77
2021/12/25 13:54:25;;;;;;;24.00;10.27;;;15.20;99.90;;;;;;5035422;28;20025;-79
2021/12/25 13:56:53;;;;;;;22.02;10.05;;;15.20;99.90;;;;;;5022640;28;20037;-79
2021/12/25 13:59:19;;;;;;;22.55;10.63;;;15.10;99.90;;;;;;5042500;28;20030;-82
2021/12/25 14:01:55;;;;;;;21.75;11.55;;;15.20;99.90;;;;;;5047943;28;20025;-81
2021/12/25 14:04:22;;;;;;;24.35;11.02;;;15.20;99.90;;;;;;5041764;28;20029;-79
2021/12/25 14:06:48;;;;;;;22.13;10.45;;;15.20;99.90;;;;;;5036978;28;20017;-80
2021/12/25 14:09:14;;;;;;;21.23;11.38;;;15.20;99.90;;;;;;5016319;28;20032;-78
2021/12/25 14:11:48;;;;;;;22.95;11.93;;;15.20;99.90;;;;;;5034490;28;20026;-80